Time;durP1;ratioP1;P1;durP2;ratioP2;P2;SDS_P1;SDS_P2;PMS_P1;PMS_P2;Temp;Humidity;BMP_temperature;BMP_pressure;BME280_temperature;BME280_humidity;BME280_pressure;Samples;Min_cycle;Max_cycle;Signal;HPM_P1;HPM_P2
2022/03/25 05:02:05;;;;;;;33.35;17.52;;;0.00;99.90;;;;;;5180204;22;91947;-77
2022/03/25 05:04:30;;;;;;;35.13;18.25;;;0.00;99.90;;;;;;4958582;28;91686;-77
2022/03/25 05:06:56;;;;;;;32.67;17.63;;;0.10;99.90;;;;;;4957625;28;93682;-77
2022/03/25 05:09:22;;;;;;;37.80;20.50;;;0.10;99.90;;;;;;4957915;28;89339;-77
2022/03/25 05:11:47;;;;;;;34.65;19.77;;;0.20;99.90;;;;;;4959331;28;89779;-79
2022/03/25 05:14:14;;;;;;;35.30;19.17;;;0.30;99.90;;;;;;4959610;28;90580;-77
2022/03/25 05:16:39;;;;;;;36.47;19.63;;;0.40;99.90;;;;;;4959303;28;90153;-77
2022/03/25 05:19:05;;;;;;;34.28;18.88;;;0.30;99.90;;;;;;4959806;28;89485;-78
2022/03/25 05:21:30;;;;;;;32.28;17.90;;;0.30;99.90;;;;;;4959915;28;88962;-77
2022/03/25 05:23:56;;;;;;;35.45;18.40;;;0.20;99.90;;;;;;4956976;28;92508;-76
2022/03/25 05:26:21;;;;;;;34.35;19.05;;;0.10;99.90;;;;;;4959394;28;89748;-76
2022/03/25 05:28:47;;;;;;;36.95;19.95;;;0.00;99.90;;;;;;4957370;28;91431;-76
2022/03/25 05:31:13;;;;;;;38.33;20.70;;;0.00;99.90;;;;;;4959185;28;89264;-78
2022/03/25 05:33:39;;;;;;;34.92;18.73;;;0.10;99.90;;;;;;4959510;28;90105;-76
2022/03/25 05:36:05;;;;;;;35.17;19.45;;;0.10;99.90;;;;;;4957595;28;92759;-77
2022/03/25 05:38:31;;;;;;;34.30;19.05;;;0.00;99.90;;;;;;4959516;28;89249;-77
2022/03/25 05:40:57;;;;;;;33.50;18.55;;;0.00;99.90;;;;;;4959101;28;90294;-77
2022/03/25 05:43:22;;;;;;;32.03;18.55;;;0.00;99.90;;;;;;4958933;28;90262;-77
2022/03/25 05:45:48;;;;;;;35.85;19.50;;;0.10;99.90;;;;;;4959636;28;89166;-77
2022/03/25 05:48:13;;;;;;;36.58;20.13;;;0.10;99.90;;;;;;4959426;28;89182;-77
2022/03/25 05:50:39;;;;;;;39.30;20.58;;;0.10;99.90;;;;;;4958564;28;90891;-77
2022/03/25 05:53:08;;;;;;;35.95;19.48;;;0.20;99.90;;;;;;4956805;28;92924;-77
2022/03/25 05:55:33;;;;;;;34.15;18.17;;;0.30;99.90;;;;;;4958962;28;89610;-77
2022/03/25 05:57:59;;;;;;;34.30;18.77;;;0.30;99.90;;;;;;4958856;28;89063;-78
2022/03/25 06:00:25;;;;;;;34.15;19.80;;;0.40;99.90;;;;;;4957037;28;92411;-78
2022/03/25 06:02:50;;;;;;;37.63;19.10;;;0.40;99.90;;;;;;4958547;28;90074;-77
2022/03/25 06:05:17;;;;;;;37.22;19.70;;;0.50;99.90;;;;;;4959295;28;90305;-78
2022/03/25 06:07:44;;;;;;;36.05;18.65;;;0.60;99.90;;;;;;4959121;28;89470;-77
2022/03/25 06:10:11;;;;;;;38.60;19.90;;;0.60;99.90;;;;;;4958309;28;89127;-77
2022/03/25 06:12:39;;;;;;;36.38;20.45;;;0.70;99.90;;;;;;4958703;28;89424;-78
2022/03/25 06:15:05;;;;;;;36.97;19.80;;;0.80;99.90;;;;;;4955146;28;92694;-78
2022/03/25 06:17:30;;;;;;;37.17;19.65;;;1.00;99.90;;;;;;4956703;28;90242;-78
2022/03/25 06:19:56;;;;;;;35.58;20.20;;;1.10;99.90;;;;;;4958940;28;89359;-78
2022/03/25 06:22:25;;;;;;;34.67;19.50;;;1.20;99.90;;;;;;4958882;28;90488;-78
2022/03/25 06:24:54;;;;;;;36.35;20.77;;;1.30;99.90;;;;;;4957265;28;89822;-77
2022/03/25 06:27:20;;;;;;;38.67;20.40;;;1.40;99.90;;;;;;4939930;28;89297;-78
2022/03/25 06:29:46;;;;;;;36.88;20.33;;;1.60;99.90;;;;;;4939207;28;89811;-78
2022/03/25 06:32:12;;;;;;;38.35;20.48;;;1.70;99.90;;;;;;4943921;28;90107;-78
2022/03/25 06:34:37;;;;;;;36.38;20.48;;;1.80;99.90;;;;;;4941179;28;89046;-78
2022/03/25 06:37:04;;;;;;;38.17;21.23;;;1.90;99.90;;;;;;4937271;28;89208;-79
2022/03/25 06:39:29;;;;;;;40.55;22.50;;;2.00;99.90;;;;;;4938802;28;89359;-76
2022/03/25 06:41:55;;;;;;;34.95;20.42;;;2.10;99.90;;;;;;4937870;28;90794;-76
2022/03/25 06:44:21;;;;;;;40.88;21.27;;;2.20;99.90;;;;;;4938116;28;90072;-76
2022/03/25 06:46:46;;;;;;;36.85;21.17;;;2.20;99.90;;;;;;4938294;28;89097;-76
2022/03/25 06:49:12;;;;;;;36.63;20.30;;;2.40;99.90;;;;;;4938189;28;89348;-76
2022/03/25 06:51:39;;;;;;;34.50;19.52;;;2.50;99.90;;;;;;4937810;28;92046;-75
2022/03/25 06:54:05;;;;;;;36.95;20.30;;;2.60;99.90;;;;;;4937453;28;91570;-77
2022/03/25 06:56:34;;;;;;;34.97;20.00;;;2.70;99.90;;;;;;4938902;28;89282;-77
2022/03/25 06:59:00;;;;;;;37.72;20.70;;;2.80;99.90;;;;;;4939112;28;89210;-78
2022/03/25 07:01:26;;;;;;;37.63;21.02;;;2.90;99.90;;;;;;4941018;28;90427;-80
2022/03/25 07:03:52;;;;;;;35.60;20.75;;;3.10;99.90;;;;;;4939653;28;89325;-78
2022/03/25 07:06:22;;;;;;;36.95;20.60;;;3.20;99.90;;;;;;4936070;28;90607;-77
2022/03/25 07:08:54;;;;;;;39.67;20.80;;;3.40;99.90;;;;;;4936688;28;92111;-77
2022/03/25 07:11:20;;;;;;;39.85;21.02;;;3.50;99.90;;;;;;4937600;28;89424;-77
2022/03/25 07:13:46;;;;;;;38.92;21.90;;;3.60;99.90;;;;;;4936157;28;92039;-77
2022/03/25 07:16:11;;;;;;;37.88;21.42;;;3.80;99.90;;;;;;4937866;28;89156;-78
2022/03/25 07:18:37;;;;;;;36.67;21.08;;;4.00;99.90;;;;;;4938373;28;89432;-78
2022/03/25 07:21:04;;;;;;;36.58;21.75;;;4.10;99.90;;;;;;4937792;28;89201;-77
2022/03/25 07:23:30;;;;;;;45.70;22.17;;;4.20;99.90;;;;;;4934363;28;91636;-78
2022/03/25 07:25:56;;;;;;;42.90;23.20;;;4.40;99.90;;;;;;4938552;28;89292;-78
2022/03/25 07:28:21;;;;;;;41.55;22.50;;;4.60;99.90;;;;;;4937078;28;89227;-78
2022/03/25 07:30:47;;;;;;;37.38;22.45;;;4.70;99.90;;;;;;4937149;28;91391;-77
2022/03/25 07:33:12;;;;;;;43.95;23.73;;;4.90;99.90;;;;;;4935462;28;90807;-77
2022/03/25 07:35:38;;;;;;;41.38;23.98;;;5.00;99.90;;;;;;4936183;28;89448;-77
2022/03/25 07:38:06;;;;;;;41.67;23.42;;;5.20;99.90;;;;;;4936265;28;89382;-77
2022/03/25 07:40:32;;;;;;;42.10;23.23;;;5.30;99.90;;;;;;4934199;28;90299;-77
2022/03/25 07:42:58;;;;;;;38.15;22.42;;;5.50;99.90;;;;;;4942357;28;90947;-77
2022/03/25 07:45:24;;;;;;;43.35;23.58;;;5.60;99.90;;;;;;4940281;28;89515;-78
2022/03/25 07:47:50;;;;;;;41.95;24.05;;;5.80;99.90;;;;;;4935764;28;91515;-78
2022/03/25 07:50:22;;;;;;;41.10;22.38;;;5.90;99.90;;;;;;4939878;28;89316;-78
2022/03/25 07:52:49;;;;;;;41.22;22.88;;;6.10;99.90;;;;;;4936837;28;91697;-78
2022/03/25 07:55:17;;;;;;;36.83;22.48;;;6.20;99.90;;;;;;4951121;28;90302;-78
2022/03/25 07:57:43;;;;;;;43.97;23.70;;;6.40;99.90;;;;;;4956054;28;93004;-77
2022/03/25 08:00:11;;;;;;;36.83;21.77;;;6.50;99.90;;;;;;4955365;28;91764;-77
2022/03/25 08:02:45;;;;;;;42.33;24.60;;;6.70;99.90;;;;;;4957982;28;89897;-77
2022/03/25 08:05:11;;;;;;;37.70;24.23;;;6.80;99.90;;;;;;4945482;28;89317;-77
2022/03/25 08:07:52;;;;;;;40.60;23.92;;;7.00;99.90;;;;;;4936611;28;91920;-78
2022/03/25 08:10:24;;;;;;;38.38;24.05;;;7.20;99.90;;;;;;4937651;28;89741;-77
2022/03/25 08:12:51;;;;;;;50.53;24.83;;;7.30;99.90;;;;;;4936494;28;91821;-77
2022/03/25 08:15:18;;;;;;;40.97;23.67;;;7.50;99.90;;;;;;4949218;28;89494;-77
2022/03/25 08:17:55;;;;;;;42.35;23.27;;;7.60;99.90;;;;;;4956832;28;90290;-78
2022/03/25 08:20:35;;;;;;;41.03;23.92;;;7.80;99.70;;;;;;4935605;28;90356;-78
2022/03/25 08:23:02;;;;;;;39.25;23.65;;;8.00;99.90;;;;;;4928673;28;90077;-79
2022/03/25 08:28:14;;;;;;;39.63;23.17;;;8.30;98.10;;;;;;4934984;28;89327;-78
2022/03/25 08:30:41;;;;;;;40.25;24.67;;;8.50;97.60;;;;;;4931128;28;89950;-78
2022/03/25 08:33:07;;;;;;;44.35;26.25;;;8.70;97.40;;;;;;4940597;28;93162;-78
2022/03/25 08:35:33;;;;;;;47.17;26.23;;;8.80;97.40;;;;;;4942624;28;89444;-79
2022/03/25 08:37:58;;;;;;;46.05;27.17;;;9.00;96.50;;;;;;4950127;28;90172;-79
2022/03/25 08:40:26;;;;;;;42.30;25.55;;;9.10;96.40;;;;;;4942286;28;90492;-79
2022/03/25 08:42:52;;;;;;;44.42;25.88;;;9.20;94.80;;;;;;4938617;28;91495;-79
2022/03/25 08:45:17;;;;;;;40.33;25.10;;;9.40;95.00;;;;;;4940116;28;90193;-79
2022/03/25 08:47:44;;;;;;;39.50;25.05;;;9.50;95.50;;;;;;4942357;28;90263;-79
2022/03/25 08:50:12;;;;;;;41.70;25.73;;;9.60;93.90;;;;;;4943874;28;90211;-79
2022/03/25 08:52:42;;;;;;;44.60;26.50;;;9.80;93.60;;;;;;4941145;28;92873;-79
2022/03/25 08:55:09;;;;;;;43.88;25.70;;;9.80;92.80;;;;;;4943202;28;89956;-79
2022/03/25 08:57:35;;;;;;;42.88;26.27;;;10.10;92.60;;;;;;4940449;28;90100;-79
2022/03/25 09:00:03;;;;;;;38.45;24.65;;;10.30;92.60;;;;;;4939950;28;93128;-79
2022/03/25 09:02:28;;;;;;;40.58;25.08;;;10.40;91.70;;;;;;4944779;28;92027;-77
2022/03/25 09:04:54;;;;;;;38.58;25.33;;;10.60;92.70;;;;;;4947720;28;89381;-80
2022/03/25 09:07:19;;;;;;;42.72;25.85;;;10.70;91.80;;;;;;4944150;28;89342;-79
2022/03/25 09:09:45;;;;;;;41.85;25.42;;;10.70;91.40;;;;;;4939643;28;91444;-78
2022/03/25 09:12:11;;;;;;;41.42;25.48;;;10.70;91.00;;;;;;4938145;28;93737;-79
2022/03/25 09:14:36;;;;;;;43.13;25.90;;;11.00;90.70;;;;;;4940398;28;89518;-79
2022/03/25 09:17:02;;;;;;;39.10;25.10;;;11.20;90.90;;;;;;4937562;28;91893;-79
2022/03/25 09:19:28;;;;;;;41.03;26.70;;;11.40;90.00;;;;;;4939794;28;90381;-79
2022/03/25 09:21:53;;;;;;;42.47;25.80;;;11.50;91.00;;;;;;4942073;28;92755;-79
2022/03/25 09:24:21;;;;;;;41.63;25.42;;;11.70;90.10;;;;;;4944711;28;89195;-79
2022/03/25 09:26:47;;;;;;;40.47;25.60;;;11.80;89.70;;;;;;4941130;28;93017;-80
2022/03/25 09:29:12;;;;;;;46.75;26.73;;;12.00;86.80;;;;;;4942735;28;91702;-79
2022/03/25 09:31:38;;;;;;;42.10;26.83;;;12.10;87.10;;;;;;4943771;28;89789;-79
2022/03/25 09:36:49;;;;;;;44.38;26.95;;;12.50;87.70;;;;;;4942875;28;89160;-79
2022/03/25 09:39:14;;;;;;;43.67;26.30;;;12.70;86.00;;;;;;4942985;28;93119;-80
2022/03/25 09:41:40;;;;;;;44.83;27.92;;;12.80;84.10;;;;;;4940406;28;89161;-80
2022/03/25 09:44:08;;;;;;;40.50;25.75;;;12.90;82.50;;;;;;4946296;28;89190;-80
2022/03/25 09:46:41;;;;;;;42.38;26.35;;;13.00;83.60;;;;;;4940113;28;92583;-79
2022/03/25 09:49:06;;;;;;;42.42;26.00;;;13.10;82.90;;;;;;4938218;28;92983;-76
2022/03/25 09:51:32;;;;;;;41.60;27.17;;;13.30;84.30;;;;;;4941279;28;89001;-78
2022/03/25 09:53:59;;;;;;;42.13;26.77;;;13.40;81.40;;;;;;4948025;28;90238;-78
2022/03/25 09:56:25;;;;;;;45.20;27.13;;;13.40;79.00;;;;;;4959440;28;91312;-78
2022/03/25 09:59:00;;;;;;;40.17;26.00;;;13.60;79.30;;;;;;4959056;28;90257;-79
2022/03/25 10:01:25;;;;;;;41.97;26.67;;;13.80;80.20;;;;;;4957567;28;92695;-79
2022/03/25 10:03:51;;;;;;;43.08;27.92;;;14.10;77.60;;;;;;4923209;28;89306;-76
2022/03/25 10:06:16;;;;;;;42.40;26.67;;;14.20;77.80;;;;;;4921754;28;89298;-79
2022/03/25 10:08:43;;;;;;;42.92;26.55;;;14.40;78.20;;;;;;4921901;28;90529;-78
2022/03/25 10:11:27;;;;;;;44.85;27.42;;;14.60;77.10;;;;;;4920928;28;90203;-78
2022/03/25 10:14:31;;;;;;;44.42;28.17;;;14.80;75.60;;;;;;4949706;28;89254;-79
2022/03/25 10:16:59;;;;;;;47.65;27.17;;;15.00;74.70;;;;;;4940436;28;89916;-79
2022/03/25 10:19:33;;;;;;;46.50;28.80;;;15.10;73.80;;;;;;4940492;28;89216;-78
2022/03/25 10:22:01;;;;;;;46.10;27.48;;;15.20;77.50;;;;;;4938436;28;93210;-79
2022/03/25 10:24:53;;;;;;;43.22;28.20;;;15.30;76.10;;;;;;4939991;28;90214;-78
2022/03/25 10:27:23;;;;;;;45.08;28.20;;;15.30;75.30;;;;;;4942425;28;90195;-80
2022/03/25 10:29:55;;;;;;;41.83;28.88;;;15.40;75.80;;;;;;4942254;28;89363;-78
2022/03/25 10:32:24;;;;;;;49.22;29.60;;;15.60;74.20;;;;;;4938238;28;91430;-78
2022/03/25 10:35:07;;;;;;;42.83;28.35;;;15.50;73.50;;;;;;4940144;28;89359;-78
2022/03/25 10:37:38;;;;;;;46.45;28.70;;;15.60;76.70;;;;;;4937504;28;92110;-78
2022/03/25 10:40:07;;;;;;;45.58;28.80;;;15.70;74.60;;;;;;4937318;28;89652;-79
2022/03/25 10:42:42;;;;;;;50.05;29.35;;;15.80;74.00;;;;;;4941913;28;94042;-79
2022/03/25 10:45:40;;;;;;;46.10;29.95;;;15.90;73.50;;;;;;4938120;28;89280;-79
2022/03/25 10:48:19;;;;;;;48.28;29.70;;;16.10;71.50;;;;;;4937311;28;92558;-77
2022/03/25 10:51:08;;;;;;;47.38;29.58;;;16.30;71.90;;;;;;4936454;28;93305;-79
2022/03/25 10:53:36;;;;;;;49.05;30.45;;;16.40;69.20;;;;;;4947585;28;94029;-79
2022/03/25 10:56:08;;;;;;;46.22;30.42;;;16.40;67.70;;;;;;4942436;28;89273;-79
2022/03/25 10:58:34;;;;;;;43.95;29.38;;;16.50;69.70;;;;;;4938091;28;92050;-79
2022/03/25 11:01:00;;;;;;;44.00;29.55;;;16.70;67.80;;;;;;4935526;28;90206;-79
2022/03/25 11:03:27;;;;;;;48.30;30.05;;;16.90;67.70;;;;;;4937515;28;90205;-77
2022/03/25 11:05:53;;;;;;;46.55;30.50;;;16.90;67.10;;;;;;4938401;28;89463;-77
2022/03/25 11:08:20;;;;;;;46.80;29.75;;;16.80;66.40;;;;;;4937539;28;91854;-78
2022/03/25 11:10:46;;;;;;;42.75;29.00;;;16.90;65.60;;;;;;4936361;28;92218;-77
2022/03/25 11:13:11;;;;;;;44.10;28.33;;;17.20;65.80;;;;;;4959404;23;92204;-76
2022/03/25 11:15:38;;;;;;;43.28;29.90;;;17.40;65.90;;;;;;4940605;28;90233;-76
2022/03/25 11:18:05;;;;;;;42.60;28.27;;;17.70;61.90;;;;;;4941299;28;89152;-76
2022/03/25 11:20:31;;;;;;;42.70;29.02;;;17.90;59.80;;;;;;4938056;28;89376;-75
2022/03/25 11:23:12;;;;;;;44.95;30.08;;;18.00;60.90;;;;;;4939237;28;89657;-76
2022/03/25 11:25:51;;;;;;;45.38;28.85;;;18.10;61.70;;;;;;4939376;28;89399;-75
2022/03/25 11:28:20;;;;;;;44.35;28.83;;;18.30;60.70;;;;;;4941544;28;89240;-76
2022/03/25 11:30:57;;;;;;;44.10;30.17;;;18.50;58.50;;;;;;4935910;28;92290;-79
2022/03/25 11:33:23;;;;;;;50.35;30.33;;;18.40;60.80;;;;;;4937135;28;89854;-77
2022/03/25 11:36:15;;;;;;;46.38;31.20;;;18.40;59.70;;;;;;4936519;28;89414;-77
2022/03/25 11:38:42;;;;;;;42.50;28.85;;;18.60;58.70;;;;;;4935436;28;89615;-76
2022/03/25 11:41:24;;;;;;;47.33;30.92;;;18.60;60.00;;;;;;4935587;28;93669;-77
2022/03/25 11:44:14;;;;;;;49.45;28.95;;;18.40;60.40;;;;;;4937792;28;91177;-76
2022/03/25 11:46:58;;;;;;;47.78;30.38;;;18.40;59.50;;;;;;4935909;28;89713;-75
2022/03/25 11:49:24;;;;;;;47.28;31.35;;;18.60;58.30;;;;;;4937656;28;90151;-75
2022/03/25 11:51:50;;;;;;;43.22;29.45;;;18.60;59.20;;;;;;4936065;28;91607;-77
2022/03/25 11:54:41;;;;;;;44.28;29.70;;;18.80;58.70;;;;;;4935761;28;92815;-76
2022/03/25 11:57:28;;;;;;;43.08;29.55;;;19.10;57.70;;;;;;4918010;28;89361;-76
2022/03/25 11:59:59;;;;;;;44.45;30.30;;;19.40;57.10;;;;;;4926293;28;90155;-76
2022/03/25 12:02:32;;;;;;;48.15;30.33;;;19.60;55.50;;;;;;4936820;28;89837;-76
2022/03/25 12:04:59;;;;;;;41.05;28.70;;;19.80;57.20;;;;;;4938241;28;89870;-78
2022/03/25 12:07:25;;;;;;;44.40;30.15;;;19.80;55.90;;;;;;4938305;28;90275;-79
2022/03/25 12:09:51;;;;;;;42.63;29.83;;;20.00;55.80;;;;;;4940763;28;89753;-79
2022/03/25 12:12:17;;;;;;;40.55;28.83;;;20.20;54.30;;;;;;4939215;28;92032;-78
2022/03/25 12:15:13;;;;;;;43.17;28.80;;;20.40;52.80;;;;;;4941187;28;89675;-78
2022/03/25 12:17:39;;;;;;;46.05;29.25;;;20.40;51.10;;;;;;4940754;28;89654;-78
2022/03/25 12:20:05;;;;;;;41.90;28.98;;;20.50;52.00;;;;;;4941097;28;89385;-76
2022/03/25 12:22:33;;;;;;;45.15;28.92;;;20.50;52.70;;;;;;4940983;28;90957;-79
2022/03/25 12:25:07;;;;;;;40.60;28.13;;;20.30;51.40;;;;;;4939867;28;92921;-77
2022/03/25 12:27:33;;;;;;;39.38;28.02;;;20.50;52.10;;;;;;4941013;28;89287;-77
2022/03/25 12:29:58;;;;;;;43.72;29.17;;;20.60;54.30;;;;;;4940580;28;90352;-79
2022/03/25 12:32:30;;;;;;;44.28;28.98;;;20.60;51.40;;;;;;4939966;28;91023;-76
2022/03/25 12:35:06;;;;;;;40.13;27.05;;;20.90;51.10;;;;;;4920759;28;90423;-77
2022/03/25 12:37:34;;;;;;;40.08;26.90;;;20.70;50.40;;;;;;4921176;28;89421;-76
2022/03/25 12:40:13;;;;;;;39.40;26.83;;;20.90;50.20;;;;;;4937620;28;90225;-77
2022/03/25 12:42:39;;;;;;;36.72;27.13;;;20.70;49.20;;;;;;4937623;28;89625;-77
2022/03/25 12:45:05;;;;;;;38.65;27.23;;;20.60;48.80;;;;;;4939813;28;89589;-78
2022/03/25 12:47:36;;;;;;;40.53;27.38;;;20.60;50.40;;;;;;4937993;28;89417;-77
2022/03/25 12:50:04;;;;;;;41.65;27.58;;;20.50;49.00;;;;;;4940178;28;89570;-77
2022/03/25 12:52:30;;;;;;;36.33;26.38;;;20.70;49.90;;;;;;4939383;28;92058;-77
2022/03/25 12:55:06;;;;;;;36.28;24.67;;;21.00;48.20;;;;;;4939314;28;89285;-77
2022/03/25 12:57:37;;;;;;;36.55;24.90;;;21.00;47.60;;;;;;4941100;28;90167;-78
2022/03/25 13:00:11;;;;;;;37.35;25.67;;;21.10;46.50;;;;;;4937853;28;91433;-77
2022/03/25 13:02:40;;;;;;;35.47;24.88;;;21.10;47.50;;;;;;4937607;28;92280;-77
2022/03/25 13:05:14;;;;;;;36.42;25.40;;;21.20;46.70;;;;;;4938084;28;89452;-78
2022/03/25 13:07:46;;;;;;;36.50;24.25;;;21.20;49.20;;;;;;4931470;28;89318;-77
2022/03/25 13:10:12;;;;;;;37.35;24.63;;;21.50;48.60;;;;;;4939290;28;91238;-77
2022/03/25 13:12:43;;;;;;;33.75;23.52;;;21.50;45.40;;;;;;4938955;28;90276;-76
2022/03/25 13:15:11;;;;;;;38.70;24.73;;;21.60;46.20;;;;;;4938861;28;89949;-77
2022/03/25 13:17:44;;;;;;;35.80;24.98;;;21.80;45.60;;;;;;4937654;28;89260;-77
2022/03/25 13:20:25;;;;;;;38.15;25.75;;;21.70;45.00;;;;;;4927985;28;89308;-77
2022/03/25 13:23:17;;;;;;;35.17;24.98;;;21.70;47.20;;;;;;4938382;28;90415;-77
2022/03/25 13:25:46;;;;;;;36.25;23.98;;;21.80;46.40;;;;;;4939419;28;91142;-77
2022/03/25 13:28:26;;;;;;;37.40;25.55;;;22.00;45.60;;;;;;4941234;28;89422;-78
2022/03/25 13:30:54;;;;;;;34.70;24.45;;;21.90;44.30;;;;;;4957379;28;89089;-77
2022/03/25 13:33:22;;;;;;;34.17;24.40;;;22.10;44.30;;;;;;4951021;28;89352;-77
2022/03/25 13:35:50;;;;;;;38.75;26.48;;;22.10;46.60;;;;;;4939512;28;89255;-77
2022/03/25 13:38:27;;;;;;;37.10;25.02;;;21.80;44.10;;;;;;4939869;28;89311;-77
2022/03/25 13:40:57;;;;;;;35.00;24.95;;;21.80;45.30;;;;;;4939494;28;92495;-77
2022/03/25 13:43:45;;;;;;;36.10;25.23;;;21.70;44.80;;;;;;4939263;28;90009;-77
2022/03/25 13:46:18;;;;;;;37.17;25.33;;;21.80;48.10;;;;;;4938713;28;89770;-77
2022/03/25 13:48:45;;;;;;;34.45;25.45;;;21.90;45.20;;;;;;4935646;28;90351;-77
2022/03/25 13:51:31;;;;;;;35.03;24.90;;;21.80;45.30;;;;;;4937414;28;93270;-77
2022/03/25 13:54:07;;;;;;;35.10;25.77;;;21.60;44.80;;;;;;4938519;28;90437;-77
2022/03/25 13:56:43;;;;;;;36.20;26.30;;;21.60;45.00;;;;;;4938533;28;89191;-77
2022/03/25 13:59:24;;;;;;;35.05;25.92;;;21.80;46.90;;;;;;4939078;28;89188;-77
2022/03/25 14:01:49;;;;;;;36.40;25.92;;;22.00;44.80;;;;;;4936961;28;92771;-77
2022/03/25 14:04:22;;;;;;;34.90;25.70;;;22.20;46.70;;;;;;4939084;28;90404;-77
2022/03/25 14:06:52;;;;;;;35.47;24.65;;;22.40;44.40;;;;;;4939402;28;89080;-77
2022/03/25 14:09:32;;;;;;;34.20;25.08;;;22.30;45.00;;;;;;4939127;28;89568;-77
2022/03/25 14:12:18;;;;;;;36.17;24.15;;;22.60;45.60;;;;;;4938745;28;90059;-77
2022/03/25 14:14:58;;;;;;;34.25;23.98;;;22.60;46.10;;;;;;4937807;28;90351;-77
2022/03/25 14:17:29;;;;;;;38.83;24.80;;;22.30;45.10;;;;;;4937071;28;91988;-77
2022/03/25 14:20:04;;;;;;;34.95;24.70;;;22.60;45.40;;;;;;4938752;28;90154;-77
2022/03/25 14:22:30;;;;;;;36.78;24.70;;;23.20;43.60;;;;;;4938907;28;90332;-77
2022/03/25 14:24:57;;;;;;;32.40;24.55;;;23.70;43.90;;;;;;4938090;28;90725;-76
2022/03/25 14:27:23;;;;;;;32.72;23.88;;;24.10;41.20;;;;;;4938725;28;89272;-77
2022/03/25 14:29:49;;;;;;;34.67;24.38;;;24.70;41.20;;;;;;4942091;28;89154;-79
2022/03/25 14:32:16;;;;;;;29.85;23.25;;;26.20;38.70;;;;;;4944426;28;89143;-79
2022/03/25 14:34:42;;;;;;;32.30;23.55;;;26.70;39.20;;;;;;4936519;28;89494;-80
2022/03/25 14:37:08;;;;;;;32.50;24.52;;;26.10;38.70;;;;;;4935491;28;89410;-80
2022/03/25 14:39:34;;;;;;;36.38;24.50;;;26.00;39.60;;;;;;4937467;28;90297;-80
2022/03/25 14:42:01;;;;;;;40.72;26.23;;;25.60;41.10;;;;;;4937998;28;89442;-79
2022/03/25 14:44:27;;;;;;;51.60;26.52;;;25.80;39.70;;;;;;4941636;28;91888;-80
2022/03/25 14:46:53;;;;;;;36.13;26.20;;;25.50;39.10;;;;;;4940550;28;89200;-77
2022/03/25 14:49:19;;;;;;;36.20;25.42;;;24.90;39.10;;;;;;4938285;28;89193;-79
2022/03/25 14:51:45;;;;;;;31.45;24.33;;;25.10;38.90;;;;;;4938503;28;90310;-78
2022/03/25 14:54:12;;;;;;;31.63;24.35;;;25.40;39.80;;;;;;4922933;28;89907;-78
2022/03/25 14:56:39;;;;;;;29.23;23.17;;;25.60;38.00;;;;;;4933615;28;89612;-79
2022/03/25 14:59:05;;;;;;;33.17;24.35;;;26.40;37.20;;;;;;4938024;28;89353;-78
2022/03/25 15:01:31;;;;;;;32.15;25.40;;;25.80;37.40;;;;;;4951789;28;89945;-79
2022/03/25 15:03:57;;;;;;;32.97;24.80;;;24.90;38.60;;;;;;4938807;28;92889;-78
2022/03/25 15:06:22;;;;;;;32.70;24.58;;;25.10;38.80;;;;;;4935820;28;92385;-79
2022/03/25 15:08:49;;;;;;;34.38;25.23;;;24.80;38.60;;;;;;4937498;28;89708;-82
2022/03/25 15:11:15;;;;;;;30.45;24.60;;;24.80;41.50;;;;;;4937139;28;91688;-78
2022/03/25 15:13:42;;;;;;;32.10;24.05;;;25.40;38.90;;;;;;4933821;28;89528;-76
2022/03/25 15:16:12;;;;;;;30.30;23.63;;;25.60;39.10;;;;;;4938094;28;89312;-76
2022/03/25 15:18:39;;;;;;;34.03;25.35;;;25.70;39.20;;;;;;4930508;28;89539;-76
2022/03/25 15:21:05;;;;;;;34.17;25.13;;;25.90;37.50;;;;;;4939873;28;88978;-79
2022/03/25 15:23:31;;;;;;;32.75;24.73;;;26.10;38.00;;;;;;4943087;28;92109;-77
2022/03/25 15:25:58;;;;;;;30.40;24.20;;;26.80;37.10;;;;;;4937211;28;89749;-77
2022/03/25 15:28:26;;;;;;;31.80;25.08;;;27.00;38.30;;;;;;4937272;28;90225;-77
2022/03/25 15:36:20;;;;;;;33.88;24.95;;;25.50;39.10;;;;;;4937786;28;89135;-76
2022/03/25 15:38:46;;;;;;;31.50;25.75;;;25.40;39.30;;;;;;4938250;28;89204;-76
2022/03/25 15:41:11;;;;;;;30.13;24.48;;;24.70;38.30;;;;;;4932404;28;89978;-76
2022/03/25 15:43:37;;;;;;;32.85;24.80;;;24.80;39.70;;;;;;4935167;28;89951;-76
2022/03/25 15:46:02;;;;;;;32.78;24.60;;;25.10;39.30;;;;;;4938056;28;89738;-76
2022/03/25 15:48:28;;;;;;;31.17;23.45;;;25.80;38.30;;;;;;4941283;28;89242;-76
2022/03/25 15:50:54;;;;;;;34.30;24.67;;;25.60;38.30;;;;;;4941046;28;89271;-76
2022/03/25 15:53:19;;;;;;;33.33;24.83;;;25.40;38.40;;;;;;4940590;28;90403;-76
2022/03/25 15:55:45;;;;;;;32.95;24.13;;;25.70;37.40;;;;;;4941083;28;90552;-76
2022/03/25 15:58:10;;;;;;;35.45;25.30;;;25.80;37.80;;;;;;4940613;28;89363;-76
2022/03/25 16:00:38;;;;;;;32.95;24.55;;;26.20;36.10;;;;;;4939453;28;93793;-76
2022/03/25 16:03:06;;;;;;;43.70;24.60;;;25.20;37.50;;;;;;4939474;28;92252;-76
2022/03/25 16:05:33;;;;;;;30.58;23.08;;;25.40;37.50;;;;;;4940901;28;89248;-76
2022/03/25 16:08:03;;;;;;;32.10;23.45;;;23.90;37.90;;;;;;4941229;28;89220;-76
2022/03/25 16:10:30;;;;;;;32.35;23.83;;;23.90;38.30;;;;;;4941285;28;89043;-76
2022/03/25 16:13:00;;;;;;;32.08;24.50;;;24.30;39.30;;;;;;4940405;28;89927;-77
2022/03/25 16:15:26;;;;;;;28.80;22.65;;;23.60;38.60;;;;;;4939026;28;93170;-77
2022/03/25 16:17:52;;;;;;;29.75;23.40;;;23.30;39.70;;;;;;4940568;28;90221;-77
2022/03/25 16:20:18;;;;;;;34.70;25.40;;;22.30;40.50;;;;;;4939298;28;91499;-77
2022/03/25 16:22:43;;;;;;;42.42;26.73;;;22.40;41.70;;;;;;4939540;28;92218;-77
2022/03/25 16:25:13;;;;;;;32.00;22.27;;;21.90;43.10;;;;;;4931394;28;90217;-77
2022/03/25 16:27:40;;;;;;;35.63;23.73;;;22.10;42.30;;;;;;4925888;28;89432;-77
2022/03/25 16:30:06;;;;;;;33.63;22.75;;;21.60;42.00;;;;;;4934098;28;89700;-77
2022/03/25 16:32:32;;;;;;;32.97;24.50;;;20.40;44.10;;;;;;4939706;28;89698;-77
2022/03/25 16:34:57;;;;;;;32.92;23.00;;;19.70;44.90;;;;;;4938501;28;92432;-79
2022/03/25 16:37:23;;;;;;;34.30;24.20;;;19.00;46.40;;;;;;4938151;28;89562;-77
2022/03/25 16:39:48;;;;;;;35.58;25.23;;;18.60;46.70;;;;;;4940533;28;89274;-77
2022/03/25 16:42:16;;;;;;;32.10;23.27;;;18.30;47.40;;;;;;4938761;28;92657;-77
2022/03/25 16:44:41;;;;;;;33.50;23.17;;;17.90;48.40;;;;;;4939853;28;90042;-77
2022/03/25 16:47:08;;;;;;;33.42;22.83;;;17.60;49.20;;;;;;4940403;28;89249;-77
2022/03/25 16:49:36;;;;;;;33.17;22.88;;;17.40;50.40;;;;;;4928767;28;92603;-77
2022/03/25 16:52:02;;;;;;;34.30;22.85;;;17.20;50.40;;;;;;4931425;28;89461;-78
2022/03/25 16:54:28;;;;;;;34.15;22.20;;;17.00;51.10;;;;;;4935931;28;92883;-78
2022/03/25 16:56:56;;;;;;;33.55;22.17;;;16.80;50.50;;;;;;4954351;28;89273;-77
2022/03/25 16:59:21;;;;;;;31.95;22.63;;;16.70;51.20;;;;;;4945056;28;89339;-78
2022/03/25 17:01:48;;;;;;;34.90;22.75;;;16.50;50.90;;;;;;4936736;28;90588;-78
2022/03/25 17:04:13;;;;;;;31.20;21.35;;;16.40;51.60;;;;;;4943084;28;89679;-77
2022/03/25 17:06:39;;;;;;;39.47;22.02;;;16.20;53.20;;;;;;4939495;28;90169;-78
2022/03/25 17:09:06;;;;;;;33.38;21.83;;;16.00;52.40;;;;;;4940188;28;89281;-77
2022/03/25 17:11:32;;;;;;;32.45;21.73;;;15.80;53.20;;;;;;4937517;28;91958;-77
2022/03/25 17:13:59;;;;;;;37.33;21.73;;;15.70;54.60;;;;;;4961526;22;91707;-78
2022/03/25 17:16:24;;;;;;;30.88;21.17;;;15.50;54.20;;;;;;4937429;28;89588;-80
2022/03/25 17:18:50;;;;;;;36.55;22.92;;;15.30;55.60;;;;;;4941044;28;90265;-76
2022/03/25 17:21:17;;;;;;;35.80;22.75;;;15.10;56.50;;;;;;4939652;28;90546;-75
2022/03/25 17:23:43;;;;;;;32.75;21.10;;;14.90;55.00;;;;;;4934761;28;91530;-76
2022/03/25 17:26:10;;;;;;;33.22;21.27;;;14.80;55.40;;;;;;4920103;28;89314;-75
2022/03/25 17:28:38;;;;;;;34.50;22.45;;;14.70;56.20;;;;;;4920301;28;92189;-77
2022/03/25 17:31:05;;;;;;;35.72;21.85;;;14.60;56.40;;;;;;4918682;28;94216;-77
2022/03/25 17:33:35;;;;;;;34.72;21.88;;;14.50;56.90;;;;;;4919756;28;92523;-75
2022/03/25 17:36:04;;;;;;;37.70;22.02;;;14.30;58.00;;;;;;4919199;28;89534;-75
2022/03/25 17:38:30;;;;;;;32.97;21.50;;;14.30;56.90;;;;;;4918753;28;91509;-75
2022/03/25 17:40:55;;;;;;;34.38;21.67;;;14.20;57.00;;;;;;4919997;28;90469;-75
2022/03/25 17:43:21;;;;;;;37.05;22.20;;;14.00;57.20;;;;;;4920192;28;90151;-78
2022/03/25 17:45:48;;;;;;;35.95;22.25;;;13.70;58.70;;;;;;4918511;28;89318;-77
2022/03/25 17:48:19;;;;;;;33.17;20.92;;;13.50;58.60;;;;;;4919420;28;93122;-79
2022/03/25 17:50:59;;;;;;;33.65;21.45;;;13.40;60.00;;;;;;4920433;28;90100;-76